Time;durP1;ratioP1;P1;durP2;ratioP2;P2;SDS_P1;SDS_P2;PMS_P1;PMS_P2;Temp;Humidity;BMP_temperature;BMP_pressure;BME280_temperature;BME280_humidity;BME280_pressure;Samples;Min_cycle;Max_cycle;Signal;HPM_P1;HPM_P2
2023/04/04 00:01:44;;;;;;;6.40;1.70;;;4.40;99.90;;;;;;4152127;28;20211;-93
2023/04/04 00:03:54;;;;;;;5.73;1.70;;;4.30;99.90;;;;;;4170136;28;20258;-94
2023/04/04 00:05:55;;;;;;;8.07;1.90;;;4.40;99.90;;;;;;4152377;28;20176;-92
2023/04/04 00:07:56;;;;;;;5.47;1.60;;;4.60;99.90;;;;;;4170583;28;20274;-95
2023/04/04 00:09:59;;;;;;;5.53;1.30;;;4.30;99.90;;;;;;4155262;28;20173;-93
2023/04/04 00:12:03;;;;;;;5.77;1.53;;;4.20;99.90;;;;;;4169947;28;20211;-93
2023/04/04 00:14:05;;;;;;;6.23;1.70;;;4.50;99.90;;;;;;4173916;28;20223;-93
2023/04/04 00:16:06;;;;;;;6.83;1.90;;;4.60;99.90;;;;;;4156254;28;20259;-93
2023/04/04 00:18:07;;;;;;;4.37;1.67;;;4.50;99.90;;;;;;4171394;28;20176;-94
2023/04/04 00:20:13;;;;;;;9.00;1.90;;;4.30;99.90;;;;;;4154077;28;20669;-94
2023/04/04 00:22:14;;;;;;;4.67;1.87;;;4.10;99.90;;;;;;4152123;28;20200;-93
2023/04/04 00:24:17;;;;;;;7.03;1.50;;;4.00;99.90;;;;;;4152893;28;20176;-93
2023/04/04 00:26:21;;;;;;;4.40;1.60;;;4.10;99.90;;;;;;4152676;28;20176;-93
2023/04/04 00:28:22;;;;;;;6.77;1.60;;;4.40;99.90;;;;;;4166464;28;20180;-94
2023/04/04 00:30:24;;;;;;;7.30;1.80;;;4.50;99.90;;;;;;4149835;28;20212;-92
2023/04/04 00:32:30;;;;;;;8.70;1.83;;;4.60;99.90;;;;;;4167898;28;20231;-93
2023/04/04 00:34:32;;;;;;;6.50;2.10;;;4.30;99.90;;;;;;4167547;28;20207;-93
2023/04/04 00:36:33;;;;;;;10.47;1.63;;;4.20;99.90;;;;;;4168275;28;20172;-93
2023/04/04 00:38:34;;;;;;;8.20;1.67;;;4.30;99.90;;;;;;4151519;28;20200;-93
2023/04/04 00:40:50;;;;;;;5.33;1.67;;;4.70;99.90;;;;;;4152722;28;20204;-94
2023/04/04 00:42:52;;;;;;;4.93;2.20;;;4.90;99.90;;;;;;4167860;28;20210;-93
2023/04/04 00:44:53;;;;;;;8.27;1.83;;;5.00;99.90;;;;;;4152081;28;20181;-93
2023/04/04 00:46:54;;;;;;;7.20;1.90;;;4.80;99.90;;;;;;4168205;28;20176;-94
2023/04/04 00:48:55;;;;;;;5.17;1.63;;;4.70;99.90;;;;;;4168448;28;20172;-93
2023/04/04 00:50:56;;;;;;;5.87;1.87;;;4.60;99.90;;;;;;4167365;28;20660;-94
2023/04/04 00:52:57;;;;;;;5.47;1.77;;;4.60;99.90;;;;;;4151207;28;20211;-93
2023/04/04 00:54:59;;;;;;;11.33;2.30;;;4.50;99.90;;;;;;4152109;28;20343;-93
2023/04/04 00:57:05;;;;;;;6.10;1.97;;;4.50;99.90;;;;;;4154046;28;20165;-93
2023/04/04 00:59:08;;;;;;;7.60;2.00;;;4.40;99.90;;;;;;4171182;28;20186;-93
2023/04/04 01:01:12;;;;;;;6.07;2.17;;;4.40;99.90;;;;;;4156750;28;20173;-93
2023/04/04 01:03:13;;;;;;;5.20;1.83;;;4.40;99.90;;;;;;4171939;28;20177;-93
2023/04/04 01:05:17;;;;;;;10.87;2.10;;;4.40;99.90;;;;;;4158526;28;20185;-93
2023/04/04 01:07:19;;;;;;;6.90;1.63;;;4.40;99.90;;;;;;4156872;28;20173;-93
2023/04/04 01:09:20;;;;;;;5.90;2.17;;;4.20;99.90;;;;;;4156980;28;20177;-93
2023/04/04 01:11:21;;;;;;;4.33;1.70;;;4.20;99.90;;;;;;4155834;28;20189;-94
2023/04/04 01:13:22;;;;;;;2.97;1.50;;;4.10;99.90;;;;;;4156165;28;20208;-93
2023/04/04 01:15:25;;;;;;;5.23;1.93;;;4.00;99.90;;;;;;4156506;28;20264;-93
2023/04/04 01:17:27;;;;;;;5.80;1.93;;;4.10;99.90;;;;;;4155031;28;20297;-94
2023/04/04 01:19:37;;;;;;;7.67;1.70;;;4.00;99.90;;;;;;4154692;28;20176;-94
2023/04/04 01:21:46;;;;;;;5.17;1.90;;;4.10;99.90;;;;;;4155936;28;20168;-94
2023/04/04 01:24:00;;;;;;;6.80;2.23;;;4.10;99.90;;;;;;4157476;28;20181;-93
2023/04/04 01:26:06;;;;;;;5.23;1.80;;;4.10;99.90;;;;;;4157772;28;20259;-94
2023/04/04 01:28:09;;;;;;;6.47;2.20;;;4.10;99.90;;;;;;4155913;28;20165;-93
2023/04/04 01:30:11;;;;;;;5.60;1.80;;;4.10;99.90;;;;;;4155625;28;20179;-93
2023/04/04 01:32:18;;;;;;;5.07;1.80;;;4.10;99.90;;;;;;4156835;28;20303;-93
2023/04/04 01:34:41;;;;;;;8.00;2.00;;;4.10;99.90;;;;;;4173503;28;20204;-93
2023/04/04 01:36:49;;;;;;;7.63;2.10;;;4.00;99.90;;;;;;4157294;28;20169;-93
2023/04/04 01:39:08;;;;;;;4.53;1.80;;;4.00;99.90;;;;;;4157076;28;20183;-94
2023/04/04 01:41:11;;;;;;;4.47;1.57;;;3.80;99.90;;;;;;4157151;28;20507;-92
2023/04/04 01:43:17;;;;;;;5.73;1.80;;;3.80;99.90;;;;;;4156282;28;20181;-93
2023/04/04 01:45:21;;;;;;;4.47;1.40;;;3.80;99.90;;;;;;4157632;28;20188;-92
2023/04/04 01:47:24;;;;;;;7.47;1.80;;;3.70;99.90;;;;;;4158586;28;20208;-94
2023/04/04 01:49:26;;;;;;;5.87;1.77;;;3.80;99.90;;;;;;4156429;28;20169;-93
2023/04/04 01:51:29;;;;;;;5.80;2.00;;;3.80;99.90;;;;;;4174494;28;20172;-93
2023/04/04 01:53:32;;;;;;;5.67;1.80;;;3.80;99.90;;;;;;4157788;28;20215;-92
2023/04/04 01:55:33;;;;;;;5.37;1.60;;;3.80;99.90;;;;;;4156414;28;20184;-93
2023/04/04 01:57:34;;;;;;;7.83;2.00;;;3.80;99.90;;;;;;4155772;28;20303;-93
2023/04/04 01:59:35;;;;;;;3.23;1.70;;;3.80;99.90;;;;;;4155635;28;20259;-92
2023/04/04 02:01:37;;;;;;;3.80;1.80;;;3.80;99.90;;;;;;4155663;28;20197;-94
2023/04/04 02:03:41;;;;;;;7.33;2.27;;;3.80;99.90;;;;;;4156130;28;20279;-94
2023/04/04 02:05:42;;;;;;;5.40;1.73;;;3.80;99.90;;;;;;4171718;28;20188;-92
2023/04/04 02:07:50;;;;;;;7.97;2.17;;;3.80;99.90;;;;;;4155799;28;20263;-92
2023/04/04 02:10:01;;;;;;;4.60;1.70;;;3.70;99.90;;;;;;4157812;28;20191;-92
2023/04/04 02:12:03;;;;;;;4.77;2.00;;;3.80;99.90;;;;;;4154409;28;20189;-93
2023/04/04 02:14:04;;;;;;;6.73;2.30;;;3.90;99.90;;;;;;4155401;28;20258;-93
2023/04/04 02:16:05;;;;;;;5.93;1.87;;;3.80;99.90;;;;;;4154012;28;20236;-93
2023/04/04 02:18:06;;;;;;;9.90;2.50;;;3.90;99.90;;;;;;4154274;28;20170;-93
2023/04/04 02:20:07;;;;;;;13.33;2.03;;;3.80;99.90;;;;;;4155312;28;20181;-93
2023/04/04 02:22:08;;;;;;;5.80;1.83;;;3.80;99.90;;;;;;4154934;28;20189;-93
2023/04/04 02:24:10;;;;;;;6.43;1.80;;;3.90;99.90;;;;;;4154673;28;20267;-93
2023/04/04 02:26:11;;;;;;;7.50;2.33;;;3.80;99.90;;;;;;4155012;28;20650;-93
2023/04/04 02:28:12;;;;;;;5.40;2.17;;;3.80;99.90;;;;;;4156210;28;20233;-93
2023/04/04 02:30:13;;;;;;;9.23;2.33;;;3.80;99.90;;;;;;4155235;28;20190;-93
2023/04/04 02:32:20;;;;;;;4.67;1.77;;;3.70;99.90;;;;;;4170498;28;20295;-93
2023/04/04 02:34:23;;;;;;;5.60;1.87;;;3.70;99.90;;;;;;4153214;28;20209;-92
2023/04/04 02:36:31;;;;;;;6.00;2.10;;;3.70;99.90;;;;;;4169305;28;20667;-92
2023/04/04 02:38:38;;;;;;;10.20;1.83;;;3.80;99.90;;;;;;4154132;28;20239;-94
2023/04/04 02:40:41;;;;;;;4.30;1.90;;;3.90;99.90;;;;;;4152565;28;20656;-93
2023/04/04 02:42:55;;;;;;;5.80;1.80;;;3.90;99.90;;;;;;4167634;28;20583;-94
2023/04/04 02:45:03;;;;;;;4.77;1.80;;;3.70;99.90;;;;;;4151566;28;20176;-94
2023/04/04 02:47:15;;;;;;;7.00;1.90;;;3.80;99.90;;;;;;4169603;28;20634;-94
2023/04/04 02:49:19;;;;;;;5.13;1.90;;;4.00;99.90;;;;;;4151790;28;20173;-93
2023/04/04 02:51:28;;;;;;;6.57;1.83;;;4.00;99.90;;;;;;4154731;28;20176;-93
2023/04/04 02:53:34;;;;;;;6.90;2.10;;;4.00;99.90;;;;;;4153354;28;20205;-92
2023/04/04 02:55:46;;;;;;;8.20;2.10;;;4.00;99.90;;;;;;4170003;28;20183;-93
2023/04/04 02:57:53;;;;;;;7.43;2.47;;;4.00;99.90;;;;;;4152001;28;20384;-93
2023/04/04 02:59:54;;;;;;;13.07;2.23;;;4.00;99.90;;;;;;4153838;28;20271;-92
2023/04/04 03:01:55;;;;;;;8.00;2.17;;;3.90;99.90;;;;;;4165014;28;20165;-93
2023/04/04 03:03:57;;;;;;;5.20;2.10;;;3.90;99.90;;;;;;4160556;28;20220;-94
2023/04/04 03:06:01;;;;;;;12.80;2.07;;;3.90;99.90;;;;;;4167884;28;20176;-93
2023/04/04 03:08:14;;;;;;;6.50;1.93;;;4.00;99.90;;;;;;4168701;28;20206;-93
2023/04/04 03:10:15;;;;;;;14.13;3.27;;;4.00;99.90;;;;;;4151371;28;20629;-94
2023/04/04 03:12:20;;;;;;;5.60;1.93;;;4.00;99.90;;;;;;4167523;28;20248;-93
2023/04/04 03:14:25;;;;;;;10.73;2.30;;;4.00;99.90;;;;;;4167880;28;20723;-94
2023/04/04 03:16:28;;;;;;;8.20;2.30;;;4.10;99.90;;;;;;4153068;28;20228;-93
2023/04/04 03:18:33;;;;;;;5.70;2.03;;;4.00;99.90;;;;;;4136529;28;20213;-94
2023/04/04 03:20:36;;;;;;;11.40;2.20;;;4.00;99.90;;;;;;4171424;28;20239;-92
2023/04/04 03:22:39;;;;;;;6.40;1.97;;;3.90;99.90;;;;;;4153590;28;20193;-93
2023/04/04 03:24:41;;;;;;;8.67;2.10;;;3.80;99.90;;;;;;4153974;28;20259;-93
2023/04/04 03:26:42;;;;;;;4.70;1.90;;;3.70;99.90;;;;;;4170803;28;20290;-92
2023/04/04 03:28:46;;;;;;;6.83;1.90;;;3.60;99.90;;;;;;4137786;28;20704;-93
2023/04/04 03:30:48;;;;;;;5.23;1.90;;;3.50;99.90;;;;;;4153494;28;20209;-92
2023/04/04 03:32:52;;;;;;;5.20;1.90;;;3.50;99.90;;;;;;4153480;28;20213;-93
2023/04/04 03:34:53;;;;;;;6.17;2.10;;;3.50;99.90;;;;;;4153713;28;20243;-92
2023/04/04 03:36:56;;;;;;;8.43;2.30;;;3.50;99.90;;;;;;4170912;28;20180;-93
2023/04/04 03:38:58;;;;;;;9.93;1.90;;;3.50;99.90;;;;;;4154587;28;20173;-93
2023/04/04 03:41:06;;;;;;;5.47;1.90;;;3.50;99.90;;;;;;4154297;28;20215;-94
2023/04/04 03:43:07;;;;;;;7.20;2.30;;;3.40;99.90;;;;;;4152609;28;20200;-93
2023/04/04 03:45:09;;;;;;;5.73;2.07;;;3.40;99.90;;;;;;4152905;28;20173;-93
2023/04/04 03:47:12;;;;;;;7.13;2.30;;;3.30;99.90;;;;;;4170265;28;20604;-93
2023/04/04 03:49:13;;;;;;;8.30;2.07;;;3.40;99.90;;;;;;4152982;28;20594;-93
2023/04/04 03:51:14;;;;;;;6.20;1.90;;;3.40;99.90;;;;;;4154209;28;20184;-92
2023/04/04 03:53:17;;;;;;;7.23;2.13;;;3.40;99.90;;;;;;4153848;28;20279;-92
2023/04/04 03:55:19;;;;;;;4.57;1.90;;;3.40;99.90;;;;;;4170020;28;20160;-94
2023/04/04 03:57:20;;;;;;;6.87;2.20;;;3.30;99.90;;;;;;4170903;28;20648;-93
2023/04/04 03:59:22;;;;;;;4.07;1.97;;;3.30;99.90;;;;;;4153723;28;20217;-95
2023/04/04 04:01:23;;;;;;;7.57;2.03;;;3.30;99.90;;;;;;4168716;28;20196;-93
2023/04/04 04:03:27;;;;;;;5.73;1.67;;;3.30;99.90;;;;;;4172043;28;20219;-94
2023/04/04 04:05:31;;;;;;;9.30;2.30;;;3.30;99.90;;;;;;4153305;28;20687;-94
2023/04/04 04:07:34;;;;;;;7.23;2.10;;;3.30;99.90;;;;;;4170322;28;20176;-93
2023/04/04 04:09:39;;;;;;;5.23;1.97;;;3.20;99.90;;;;;;4170662;28;20176;-93
2023/04/04 04:11:46;;;;;;;7.00;2.30;;;3.10;99.90;;;;;;4154121;28;20204;-93
2023/04/04 04:13:52;;;;;;;7.07;2.30;;;3.10;99.90;;;;;;4152955;28;20235;-93
2023/04/04 04:16:16;;;;;;;6.20;2.30;;;3.10;99.90;;;;;;4137470;28;20184;-92
2023/04/04 04:18:31;;;;;;;5.57;2.00;;;3.10;99.90;;;;;;4153218;28;20179;-92
2023/04/04 04:20:57;;;;;;;6.63;2.10;;;3.20;99.90;;;;;;4171999;28;20287;-93
2023/04/04 04:23:08;;;;;;;6.53;2.20;;;3.30;99.90;;;;;;4152561;28;20200;-94
2023/04/04 04:25:16;;;;;;;7.57;2.10;;;3.30;99.90;;;;;;4154344;28;20179;-94
2023/04/04 04:27:39;;;;;;;7.07;2.10;;;3.30;99.90;;;;;;4156641;28;20176;-93
2023/04/04 04:29:56;;;;;;;10.70;2.37;;;3.20;99.90;;;;;;4154384;28;20181;-93
2023/04/04 04:32:48;;;;;;;;;;;;;;;;;;;;;
2023/04/04 04:35:13;;;;;;;10.03;3.07;;;3.10;99.90;;;;;;4168466;28;20223;-93
2023/04/04 04:38:18;;;;;;;;;;;;;;;;;;;;;
2023/04/04 04:40:31;;;;;;;5.67;2.30;;;3.20;99.90;;;;;;4185684;28;20175;-93
2023/04/04 04:43:03;;;;;;;;;;;;;;;;;;;;;
2023/04/04 04:49:17;;;;;;;6.27;2.27;;;3.30;99.90;;;;;;4161327;28;20243;-95
2023/04/04 04:51:51;;;;;;;7.80;2.77;;;3.10;99.90;;;;;;4167304;28;20172;-93
2023/04/04 04:54:21;;;;;;;13.27;2.87;;;3.10;99.90;;;;;;4158591;28;20216;-93
2023/04/04 04:57:13;;;;;;;;;;;;;;;;;;;;;
2023/04/04 04:59:57;;;;;;;7.37;2.80;;;3.30;99.90;;;;;;4199578;28;20167;-94
2023/04/04 05:02:33;;;;;;;8.47;2.50;;;3.30;99.90;;;;;;4161470;28;20173;-93
2023/04/04 05:05:04;;;;;;;7.37;2.27;;;3.30;99.90;;;;;;4141497;28;20279;-93
2023/04/04 06:36:52;;;;;;;8.33;3.60;;;2.90;99.90;;;;;;4437813;23;21060;-94
2023/04/04 07:42:24;;;;;;;6.63;2.22;;;10.40;99.90;;;;;;4141550;28;20232;-94
2023/04/04 07:45:01;;;;;;;7.25;2.00;;;11.20;99.90;;;;;;4127432;28;20194;-94
2023/04/04 07:53:32;;;;;;;6.40;2.20;;;12.30;99.90;;;;;;4172346;23;20275;-94
2023/04/04 07:55:38;;;;;;;7.97;2.40;;;12.00;99.90;;;;;;4153335;28;20200;-96
2023/04/04 08:06:06;;;;;;;6.82;1.95;;;11.20;99.90;;;;;;4141795;28;20204;-94
2023/04/04 08:08:30;;;;;;;7.80;2.10;;;11.80;99.90;;;;;;4121963;28;20170;-94
2023/04/04 08:19:02;;;;;;;;;;;;;;;;;;;;;
2023/04/04 08:21:54;;;;;;;4.13;1.65;;;12.20;99.90;;;;;;4143841;28;20173;-95
2023/04/04 08:23:59;;;;;;;11.07;1.90;;;12.30;99.90;;;;;;4075920;29;20224;-95
2023/04/04 08:26:01;;;;;;;5.38;1.75;;;12.50;99.90;;;;;;4077730;29;20180;-94
2023/04/04 08:28:17;;;;;;;3.67;1.70;;;12.30;99.90;;;;;;4077429;29;20164;-95
2023/04/04 08:30:19;;;;;;;8.52;1.92;;;12.40;99.90;;;;;;4127329;28;20185;-93
2023/04/04 08:32:26;;;;;;;7.38;1.95;;;11.20;99.90;;;;;;4110656;28;20199;-94
2023/04/04 08:34:27;;;;;;;3.60;1.65;;;10.60;99.90;;;;;;4443907;23;20244;-93
2023/04/04 08:36:43;;;;;;;9.55;1.83;;;10.20;99.90;;;;;;4160258;28;20258;-95
2023/04/04 08:39:58;;;;;;;;;;;;;;;;;;;;;
2023/04/04 08:50:07;;;;;;;6.13;1.73;;;11.30;99.90;;;;;;5094068;22;20186;-94
2023/04/04 08:52:46;;;;;;;9.32;1.88;;;11.50;99.90;;;;;;4139613;28;20237;-96
2023/04/04 08:55:26;;;;;;;4.03;1.80;;;12.50;99.90;;;;;;4078721;29;20231;-94
2023/04/04 08:57:29;;;;;;;5.07;1.70;;;11.90;99.90;;;;;;4119594;28;20197;-94
2023/04/04 08:59:35;;;;;;;5.63;1.60;;;11.10;99.90;;;;;;4139644;28;20169;-94
2023/04/04 09:05:03;;;;;;;6.25;1.90;;;10.20;99.90;;;;;;4124140;23;20272;-93
2023/04/04 09:15:58;;;;;;;5.53;1.40;;;11.10;99.90;;;;;;4270789;22;20240;-94
2023/04/04 09:18:03;;;;;;;7.90;1.67;;;10.90;99.90;;;;;;4148209;28;20201;-94
2023/04/04 09:21:06;;;;;;;4.88;1.60;;;10.70;99.90;;;;;;4147385;28;20170;-94
2023/04/04 09:23:19;;;;;;;3.38;1.48;;;10.70;99.90;;;;;;4131820;28;20258;-95
2023/04/04 09:25:23;;;;;;;5.75;2.10;;;10.70;99.90;;;;;;4113493;28;20194;-93
2023/04/04 09:27:28;;;;;;;4.18;1.70;;;10.60;99.90;;;;;;4168511;23;20275;-94
2023/04/04 09:29:29;;;;;;;5.00;1.80;;;11.50;99.90;;;;;;4127670;28;20159;-93
2023/04/04 09:31:45;;;;;;;4.97;2.30;;;12.10;99.90;;;;;;4110933;28;20182;-94
2023/04/04 09:33:52;;;;;;;15.88;2.15;;;11.10;99.90;;;;;;4092541;29;20266;-94
2023/04/04 09:36:26;;;;;;;5.45;1.77;;;11.30;99.90;;;;;;4115859;28;20179;-94
2023/04/04 09:38:31;;;;;;;7.63;1.55;;;11.40;99.90;;;;;;4122810;28;20162;-93
2023/04/04 09:41:13;;;;;;;8.43;2.20;;;11.20;99.90;;;;;;4101761;28;20187;-94
2023/04/04 09:43:15;;;;;;;5.90;2.00;;;10.80;99.90;;;;;;4099035;28;20221;-95
2023/04/04 09:45:17;;;;;;;7.45;1.88;;;10.40;99.90;;;;;;4107589;28;20175;-94
2023/04/04 09:47:26;;;;;;;10.50;2.17;;;10.30;99.90;;;;;;4108131;28;20213;-94
2023/04/04 09:49:33;;;;;;;5.05;1.70;;;10.40;99.90;;;;;;4123421;28;20166;-93
2023/04/04 09:51:42;;;;;;;3.97;1.77;;;10.60;99.90;;;;;;4110858;28;20185;-93
2023/04/04 09:54:01;;;;;;;7.55;1.92;;;10.50;99.90;;;;;;4108235;28;20197;-94
2023/04/04 09:56:10;;;;;;;3.03;1.80;;;10.60;99.90;;;;;;4092067;29;20186;-93
2023/04/04 09:58:40;;;;;;;4.78;1.92;;;11.20;99.90;;;;;;4092321;29;20179;-94
2023/04/04 10:01:08;;;;;;;7.38;2.08;;;11.10;99.90;;;;;;4091816;29;20187;-94
2023/04/04 10:03:26;;;;;;;;;;;;;;;;;;;;;
2023/04/04 10:05:41;;;;;;;5.85;1.83;;;11.10;99.90;;;;;;4113003;28;20227;-95
2023/04/04 10:07:53;;;;;;;;;;;;;;;;;;;;;
2023/04/04 10:10:06;;;;;;;4.85;1.45;;;10.90;99.90;;;;;;4108472;28;20175;-94
2023/04/04 10:12:13;;;;;;;4.95;1.77;;;10.00;99.90;;;;;;4109757;28;20171;-95
2023/04/04 10:14:17;;;;;;;6.85;1.92;;;9.30;99.90;;;;;;4105646;28;20206;-94
2023/04/04 10:16:22;;;;;;;5.35;2.10;;;9.30;99.90;;;;;;4089915;29;20187;-93
2023/04/04 10:18:29;;;;;;;6.50;1.90;;;9.30;99.90;;;;;;4107112;28;20245;-95
2023/04/04 10:20:53;;;;;;;4.47;1.57;;;9.30;99.90;;;;;;4109766;28;20234;-93
2023/04/04 10:23:26;;;;;;;6.17;2.00;;;9.10;99.90;;;;;;4095780;28;20267;-95
2023/04/04 10:25:29;;;;;;;6.60;2.23;;;8.90;99.90;;;;;;4107167;28;20179;-93
2023/04/04 10:28:00;;;;;;;6.03;1.80;;;9.00;99.90;;;;;;4108018;28;20182;-93
2023/04/04 10:30:24;;;;;;;3.60;1.60;;;9.10;99.90;;;;;;4107328;28;20194;-94
2023/04/04 10:33:02;;;;;;;6.83;2.00;;;8.70;99.90;;;;;;4107175;28;20273;-94
2023/04/04 10:35:48;;;;;;;6.67;1.93;;;8.70;99.90;;;;;;4128567;28;20306;-95
2023/04/04 10:37:57;;;;;;;4.10;1.67;;;8.90;99.90;;;;;;4102870;28;20221;-94
2023/04/04 10:40:37;;;;;;;4.50;1.90;;;9.20;99.90;;;;;;4112019;28;20271;-95
2023/04/04 10:43:08;;;;;;;4.60;1.60;;;9.10;99.90;;;;;;4096946;29;20195;-93
2023/04/04 10:45:55;;;;;;;;;;;;;;;;;;;;;
2023/04/04 10:48:11;;;;;;;6.13;1.70;;;9.10;99.90;;;;;;4109244;28;20221;-93
2023/04/04 10:50:12;;;;;;;5.30;1.80;;;8.80;99.90;;;;;;4091004;29;20255;-93
2023/04/04 10:52:42;;;;;;;6.17;1.73;;;9.00;99.90;;;;;;4112185;28;20195;-93
2023/04/04 10:54:44;;;;;;;7.33;1.90;;;9.00;99.90;;;;;;4087948;28;20229;-93
2023/04/04 10:56:46;;;;;;;4.47;1.83;;;9.00;99.90;;;;;;4091018;29;20175;-93
2023/04/04 11:01:53;;;;;;;3.40;1.70;;;9.00;99.90;;;;;;4144213;28;20229;-93
2023/04/04 11:04:16;;;;;;;6.87;1.73;;;9.10;99.90;;;;;;4113040;29;20178;-94
2023/04/04 11:06:38;;;;;;;4.70;1.70;;;9.20;99.90;;;;;;4125004;28;20254;-94
2023/04/04 11:09:06;;;;;;;5.83;1.70;;;9.30;99.90;;;;;;4107559;28;20171;-95
2023/04/04 11:11:20;;;;;;;7.40;1.80;;;9.40;99.90;;;;;;4106769;28;20171;-94
2023/04/04 11:13:28;;;;;;;7.47;1.90;;;9.30;99.90;;;;;;4111521;28;20202;-94
2023/04/04 11:15:58;;;;;;;7.33;1.80;;;9.40;99.90;;;;;;4142716;28;20188;-94
2023/04/04 11:18:07;;;;;;;5.20;1.77;;;9.40;99.90;;;;;;4127045;28;20178;-94
2023/04/04 11:20:22;;;;;;;5.67;2.10;;;9.60;99.90;;;;;;4124740;23;20205;-94
2023/04/04 11:22:26;;;;;;;8.67;1.70;;;9.70;99.90;;;;;;4141234;28;20193;-93
2023/04/04 11:25:08;;;;;;;4.07;1.60;;;9.90;99.90;;;;;;4157652;28;20176;-95
2023/04/04 11:27:10;;;;;;;6.20;2.27;;;9.80;99.90;;;;;;4137536;28;20217;-93
2023/04/04 11:29:19;;;;;;;6.97;2.27;;;9.90;99.90;;;;;;4140180;28;20181;-94
2023/04/04 11:37:30;;;;;;;7.05;2.05;;;9.90;99.90;;;;;;4460491;23;20235;-94
2023/04/04 11:39:49;;;;;;;6.50;2.10;;;9.80;99.90;;;;;;4124999;28;20174;-94
2023/04/04 11:42:15;;;;;;;3.67;2.10;;;10.00;99.90;;;;;;4156088;28;20648;-94
2023/04/04 11:44:16;;;;;;;6.55;2.22;;;10.00;99.90;;;;;;4140925;28;20189;-94
2023/04/04 11:46:20;;;;;;;6.07;1.85;;;10.10;99.90;;;;;;4141500;28;20761;-96
2023/04/04 11:48:41;;;;;;;3.97;1.57;;;10.30;99.90;;;;;;4137207;28;20373;-95
2023/04/04 11:51:08;;;;;;;4.72;2.05;;;10.20;99.90;;;;;;4150916;28;20181;-93
2023/04/04 11:54:21;;;;;;;5.85;2.15;;;10.10;99.90;;;;;;4130019;28;20314;-95
2023/04/04 11:56:23;;;;;;;6.70;2.03;;;9.50;99.90;;;;;;4111909;28;20197;-93
2023/04/04 11:58:28;;;;;;;6.47;2.13;;;9.70;99.90;;;;;;4153066;28;20166;-94
2023/04/04 12:00:33;;;;;;;4.53;2.15;;;10.10;99.90;;;;;;4140911;28;20184;-95
2023/04/04 12:02:35;;;;;;;9.25;2.33;;;10.20;99.90;;;;;;4145756;28;20269;-95
2023/04/04 12:05:01;;;;;;;9.23;2.10;;;10.20;99.90;;;;;;4154915;28;20176;-96
2023/04/04 12:07:21;;;;;;;5.93;2.33;;;10.00;99.90;;;;;;4156667;28;20189;-94
2023/04/04 12:09:32;;;;;;;6.40;2.57;;;9.90;99.90;;;;;;4156443;28;20263;-95
2023/04/04 12:11:34;;;;;;;3.83;1.80;;;10.00;99.90;;;;;;4139257;28;20177;-94
2023/04/04 12:13:45;;;;;;;9.20;2.03;;;10.10;99.90;;;;;;4154951;28;20200;-93
2023/04/04 12:15:48;;;;;;;3.33;1.87;;;9.80;99.90;;;;;;4123779;28;20209;-93
2023/04/04 12:17:50;;;;;;;6.10;2.28;;;10.00;99.90;;;;;;4138058;28;20241;-96
2023/04/04 12:19:51;;;;;;;6.90;2.40;;;9.80;99.90;;;;;;4134101;28;20177;-94
2023/04/04 12:21:53;;;;;;;4.60;2.28;;;10.00;99.90;;;;;;4133811;28;20166;-94
2023/04/04 12:23:55;;;;;;;12.98;2.28;;;10.10;99.90;;;;;;4132345;28;20197;-92
2023/04/04 12:25:56;;;;;;;7.82;2.13;;;10.40;99.90;;;;;;4148592;28;20173;-92
2023/04/04 12:27:57;;;;;;;7.95;2.30;;;10.80;99.90;;;;;;4133085;28;20197;-93
2023/04/04 12:29:59;;;;;;;10.10;2.47;;;11.00;99.90;;;;;;4132135;28;20613;-94
2023/04/04 12:32:00;;;;;;;9.43;2.47;;;10.90;99.90;;;;;;4132962;28;20177;-94
2023/04/04 12:34:01;;;;;;;6.43;2.15;;;10.70;99.90;;;;;;4133428;28;20232;-95
2023/04/04 12:36:04;;;;;;;4.65;1.92;;;10.80;99.90;;;;;;4133001;28;20177;-92
2023/04/04 12:38:12;;;;;;;6.80;2.10;;;10.30;99.90;;;;;;4132280;28;20672;-93
2023/04/04 12:40:14;;;;;;;5.28;2.20;;;10.10;99.90;;;;;;4132462;28;20204;-94
2023/04/04 12:42:23;;;;;;;7.30;2.53;;;10.10;99.90;;;;;;4132170;28;20205;-93
2023/04/04 12:44:41;;;;;;;5.50;2.47;;;10.30;99.90;;;;;;4132266;28;20173;-94
2023/04/04 12:46:44;;;;;;;5.25;1.85;;;10.50;99.90;;;;;;4132709;28;20177;-93
2023/04/04 12:48:48;;;;;;;7.57;2.50;;;10.40;99.90;;;;;;4147965;28;20204;-93
2023/04/04 12:50:57;;;;;;;9.20;2.58;;;10.30;99.90;;;;;;4134597;28;20612;-94
2023/04/04 12:52:59;;;;;;;12.30;2.75;;;10.80;99.90;;;;;;4135629;28;20201;-93
2023/04/04 12:55:08;;;;;;;14.95;2.22;;;11.00;99.90;;;;;;4135468;28;20220;-93
2023/04/04 12:57:11;;;;;;;12.43;2.50;;;10.90;99.90;;;;;;4136059;28;20173;-92
2023/04/04 12:59:12;;;;;;;5.88;2.53;;;10.90;99.90;;;;;;4135402;28;20654;-92
2023/04/04 13:01:14;;;;;;;4.50;2.05;;;10.80;99.90;;;;;;4135973;28;20177;-92
2023/04/04 13:03:16;;;;;;;7.88;2.30;;;10.80;99.90;;;;;;4135283;28;20213;-92
2023/04/04 13:05:17;;;;;;;5.60;2.38;;;10.80;99.90;;;;;;4135844;28;20177;-93
2023/04/04 13:07:26;;;;;;;6.50;2.40;;;10.70;99.90;;;;;;4137262;28;20174;-93
2023/04/04 13:09:27;;;;;;;3.03;1.70;;;10.70;99.90;;;;;;4136035;28;20625;-93
2023/04/04 13:12:11;;;;;;;6.22;2.42;;;10.90;99.90;;;;;;4135863;28;20169;-93
2023/04/04 13:14:11;;;;;;;6.53;2.28;;;11.20;99.90;;;;;;4136052;28;20713;-94
2023/04/04 13:16:28;;;;;;;5.45;2.45;;;10.70;99.90;;;;;;4152214;28;20183;-93
2023/04/04 13:18:36;;;;;;;4.60;2.33;;;10.80;99.90;;;;;;4136881;28;20166;-94
2023/04/04 13:20:36;;;;;;;6.82;2.35;;;10.80;99.90;;;;;;4135168;28;20212;-94
2023/04/04 13:22:38;;;;;;;3.85;1.88;;;11.00;99.90;;;;;;4135763;28;20197;-92
2023/04/04 13:24:39;;;;;;;8.63;2.65;;;10.80;99.90;;;;;;4135088;28;20181;-94
2023/04/04 13:26:40;;;;;;;6.28;2.42;;;10.90;99.90;;;;;;4135480;28;20645;-93
2023/04/04 13:28:41;;;;;;;5.13;2.40;;;11.20;99.90;;;;;;4136905;28;20186;-93
2023/04/04 13:30:47;;;;;;;5.18;1.95;;;11.40;99.90;;;;;;4135929;28;20177;-94
2023/04/04 13:32:48;;;;;;;7.88;2.13;;;11.40;99.90;;;;;;4134801;28;20189;-93
2023/04/04 13:34:49;;;;;;;6.85;2.60;;;11.20;99.90;;;;;;4135111;28;20221;-93
2023/04/04 13:36:50;;;;;;;9.07;2.47;;;11.50;99.90;;;;;;4134992;28;20244;-94
2023/04/04 13:38:51;;;;;;;8.00;2.47;;;11.50;99.90;;;;;;4151206;28;20629;-93
2023/04/04 13:40:52;;;;;;;5.05;2.25;;;11.30;99.90;;;;;;4152462;28;20168;-94
2023/04/04 13:42:53;;;;;;;10.55;2.42;;;11.10;99.90;;;;;;4151361;28;20280;-92
2023/04/04 13:44:54;;;;;;;8.45;2.60;;;11.20;99.90;;;;;;4150719;28;20184;-94
2023/04/04 13:46:54;;;;;;;5.78;2.47;;;11.50;99.90;;;;;;4151325;28;20177;-94
2023/04/04 13:48:55;;;;;;;5.13;2.22;;;11.40;99.90;;;;;;4150964;28;20173;-94
2023/04/04 13:50:56;;;;;;;6.93;2.08;;;11.10;99.90;;;;;;4134600;28;20170;-94
2023/04/04 13:52:57;;;;;;;9.20;2.40;;;10.90;99.90;;;;;;4136286;28;20190;-94
2023/04/04 13:55:01;;;;;;;7.10;2.17;;;10.90;99.90;;;;;;4138238;28;20216;-94
2023/04/04 13:57:01;;;;;;;6.25;2.30;;;11.10;99.90;;;;;;4136555;28;20184;-92
2023/04/04 13:59:02;;;;;;;7.85;2.20;;;11.10;99.90;;;;;;4135186;28;20205;-94
2023/04/04 14:01:03;;;;;;;9.48;2.70;;;11.10;99.90;;;;;;4134682;28;20554;-94
2023/04/04 14:03:04;;;;;;;5.60;2.35;;;11.30;99.90;;;;;;4134688;28;20192;-93
2023/04/04 14:05:05;;;;;;;4.13;2.10;;;11.60;99.90;;;;;;4134581;28;20189;-95
2023/04/04 14:07:06;;;;;;;4.68;2.13;;;11.70;99.90;;;;;;4151244;28;20176;-93
2023/04/04 14:09:07;;;;;;;6.13;2.25;;;11.40;99.90;;;;;;4144924;28;20552;-94
2023/04/04 14:11:07;;;;;;;6.82;2.00;;;11.60;99.90;;;;;;4134552;28;20181;-94
2023/04/04 14:13:08;;;;;;;6.47;2.55;;;11.70;99.90;;;;;;4133809;28;20198;-93
2023/04/04 14:15:12;;;;;;;6.40;2.20;;;11.90;99.90;;;;;;4150415;28;20754;-96
2023/04/04 14:17:13;;;;;;;6.88;2.70;;;11.80;99.90;;;;;;4134786;28;20173;-94
2023/04/04 14:19:14;;;;;;;8.38;2.80;;;11.70;99.90;;;;;;4136057;28;20177;-95
2023/04/04 14:21:15;;;;;;;8.10;2.70;;;11.70;99.90;;;;;;4151379;28;20154;-94
2023/04/04 14:23:15;;;;;;;11.35;2.40;;;11.70;99.90;;;;;;4162396;28;20197;-94
2023/04/04 14:25:16;;;;;;;6.18;2.13;;;11.70;99.90;;;;;;4150125;28;20188;-94
2023/04/04 14:27:17;;;;;;;8.50;2.28;;;11.60;99.90;;;;;;4133974;28;20177;-94
2023/04/04 14:29:18;;;;;;;7.82;2.28;;;11.50;99.90;;;;;;4134665;28;20165;-93
2023/04/04 14:31:18;;;;;;;3.80;2.22;;;11.40;99.90;;;;;;4134437;28;20177;-94
2023/04/04 14:33:19;;;;;;;4.75;2.30;;;11.30;99.90;;;;;;4134380;28;20558;-93
2023/04/04 14:35:20;;;;;;;6.75;2.85;;;11.30;99.90;;;;;;4133728;28;20286;-93
2023/04/04 14:37:21;;;;;;;9.07;2.67;;;11.70;99.90;;;;;;4133725;28;20224;-94
2023/04/04 14:39:22;;;;;;;5.22;2.60;;;11.90;99.90;;;;;;4150181;28;20240;-94
2023/04/04 14:41:22;;;;;;;7.63;2.72;;;11.80;99.90;;;;;;4133968;28;20178;-93
2023/04/04 14:43:23;;;;;;;7.82;2.63;;;11.60;99.90;;;;;;4133313;28;20202;-93
2023/04/04 14:45:24;;;;;;;11.45;2.70;;;11.40;99.90;;;;;;4150051;28;20181;-94
2023/04/04 14:47:25;;;;;;;5.88;2.65;;;11.40;99.90;;;;;;4133904;28;20208;-93
2023/04/04 14:49:26;;;;;;;8.30;2.50;;;11.20;99.90;;;;;;4134305;28;20170;-92
2023/04/04 14:51:27;;;;;;;6.43;2.65;;;11.20;99.90;;;;;;4133693;28;20273;-92
2023/04/04 14:53:29;;;;;;;9.50;2.85;;;11.50;99.90;;;;;;4133435;28;20205;-93
2023/04/04 14:55:29;;;;;;;4.75;2.30;;;11.90;99.90;;;;;;4133255;28;20210;-93